createdAt,value
2023-04-15T00:01:52.683Z,7.00
2023-04-15T00:04:19.667Z,7.00
2023-04-15T00:06:53.681Z,6.90
2023-04-15T00:09:21.620Z,6.90
2023-04-15T00:11:48.462Z,6.90
2023-04-15T00:14:15.727Z,6.80
2023-04-15T00:16:42.644Z,6.80
2023-04-15T00:19:09.632Z,6.90
2023-04-15T00:21:36.609Z,7.20
2023-04-15T00:24:03.936Z,7.40
2023-04-15T00:26:30.772Z,7.40
2023-04-15T00:28:58.629Z,7.20
2023-04-15T00:31:25.890Z,7.00
2023-04-15T00:33:53.411Z,6.90
2023-04-15T00:36:20.277Z,7.00
2023-04-15T00:38:47.395Z,7.20
2023-04-15T00:41:14.399Z,7.40
2023-04-15T00:43:41.524Z,7.40
2023-04-15T00:46:09.671Z,7.40
2023-04-15T00:48:37.396Z,7.60
2023-04-15T00:51:04.654Z,7.50
2023-04-15T00:53:31.448Z,7.30
2023-04-15T00:55:58.205Z,7.10
2023-04-15T00:58:26.471Z,7.00
2023-04-15T01:00:54.584Z,7.00
2023-04-15T01:03:21.769Z,7.00
2023-04-15T01:05:49.182Z,6.90
2023-04-15T01:08:16.137Z,6.80
2023-04-15T01:10:43.007Z,6.60
2023-04-15T01:13:10.224Z,6.40
2023-04-15T01:15:37.122Z,6.30
2023-04-15T01:18:04.213Z,6.20
2023-04-15T01:20:31.224Z,6.10
2023-04-15T01:22:58.066Z,6.10
2023-04-15T01:25:33.109Z,6.00
2023-04-15T01:28:00.448Z,5.90
2023-04-15T01:30:27.791Z,6.00
2023-04-15T01:32:54.752Z,6.10
2023-04-15T01:35:21.778Z,6.30
2023-04-15T01:37:49.510Z,6.70
2023-04-15T01:40:16.731Z,6.80
2023-04-15T01:42:43.591Z,6.90
2023-04-15T01:45:10.803Z,6.90
2023-04-15T01:47:37.836Z,6.90
2023-04-15T01:50:05.050Z,6.90
2023-04-15T01:52:32.315Z,6.90
2023-04-15T01:54:59.119Z,6.90
2023-04-15T01:57:26.479Z,6.90
2023-04-15T01:59:53.260Z,6.70
2023-04-15T02:02:20.563Z,6.70
2023-04-15T02:04:47.428Z,6.70
2023-04-15T02:07:14.459Z,6.60
2023-04-15T02:09:41.344Z,6.30
2023-04-15T02:12:08.188Z,6.20
2023-04-15T02:14:35.019Z,6.00
2023-04-15T02:17:07.422Z,5.90
2023-04-15T02:19:37.391Z,6.10
2023-04-15T02:22:04.227Z,6.40
2023-04-15T02:24:31.335Z,6.60
2023-04-15T02:26:58.123Z,6.70
2023-04-15T02:29:25.025Z,6.60
2023-04-15T02:31:51.944Z,6.40
2023-04-15T02:34:18.917Z,6.50
2023-04-15T02:36:47.626Z,6.40
2023-04-15T02:39:16.966Z,6.30
2023-04-15T02:41:44.088Z,6.20
2023-04-15T02:44:13.111Z,5.90
2023-04-15T02:46:41.362Z,5.70
2023-04-15T02:49:08.748Z,5.60
2023-04-15T02:51:35.692Z,5.60
2023-04-15T02:54:03.202Z,5.70
2023-04-15T02:56:31.018Z,5.50
2023-04-15T02:58:58.606Z,5.50
2023-04-15T03:01:26.322Z,5.50
2023-04-15T03:03:53.361Z,5.40
2023-04-15T03:06:20.246Z,5.40
2023-04-15T03:08:47.111Z,5.40
2023-04-15T03:11:15.380Z,5.30
2023-04-15T03:13:43.454Z,5.30
2023-04-15T03:16:10.726Z,5.40
2023-04-15T03:18:37.924Z,5.40
2023-04-15T03:21:05.029Z,5.60
2023-04-15T03:23:32.301Z,5.80
2023-04-15T03:26:02.688Z,6.00
2023-04-15T03:28:30.217Z,6.00
2023-04-15T03:30:57.160Z,6.00
2023-04-15T03:33:24.123Z,5.90
2023-04-15T03:35:52.240Z,5.80
2023-04-15T03:38:19.242Z,6.00
2023-04-15T03:40:47.253Z,6.10
2023-04-15T03:43:14.046Z,6.10
2023-04-15T03:45:40.992Z,6.00
2023-04-15T03:48:17.384Z,5.90
2023-04-15T03:50:45.200Z,6.00
2023-04-15T03:53:12.126Z,6.10
2023-04-15T03:55:38.897Z,6.20
2023-04-15T03:58:05.760Z,6.20
2023-04-15T04:00:32.621Z,6.20
2023-04-15T04:02:59.560Z,6.20
2023-04-15T04:05:26.583Z,6.20
2023-04-15T04:07:53.400Z,6.20
2023-04-15T04:10:20.345Z,6.20
2023-04-15T04:12:47.202Z,6.20
2023-04-15T04:15:14.013Z,6.20
2023-04-15T04:17:41.085Z,6.30
2023-04-15T04:20:08.574Z,6.30
2023-04-15T04:22:40.196Z,6.30
2023-04-15T04:25:08.791Z,6.30
2023-04-15T04:27:36.058Z,6.30
2023-04-15T04:30:03.129Z,6.30
2023-04-15T04:32:29.986Z,6.30
2023-04-15T04:34:56.775Z,6.30
2023-04-15T04:37:24.744Z,6.30
2023-04-15T04:39:51.553Z,6.20
2023-04-15T04:42:18.443Z,6.20
2023-04-15T04:44:45.356Z,6.30
2023-04-15T04:47:12.152Z,6.20
2023-04-15T04:49:38.943Z,6.30
2023-04-15T04:52:05.949Z,6.30
2023-04-15T04:54:32.833Z,6.30
2023-04-15T04:57:00.185Z,6.30
2023-04-15T04:59:26.995Z,6.40
2023-04-15T05:01:53.959Z,6.40
2023-04-15T05:04:20.770Z,6.40
2023-04-15T05:06:47.706Z,6.40
2023-04-15T05:09:14.787Z,6.40
2023-04-15T05:11:41.580Z,6.40
2023-04-15T05:14:08.440Z,6.40
2023-04-15T05:16:35.296Z,6.50
2023-04-15T05:19:02.388Z,6.60
2023-04-15T05:21:29.439Z,6.60
2023-04-15T05:23:56.429Z,6.70
2023-04-15T05:26:24.439Z,6.80
2023-04-15T05:28:51.226Z,6.90
2023-04-15T05:31:18.122Z,7.00
2023-04-15T05:33:44.993Z,7.00
2023-04-15T05:36:12.269Z,7.20
2023-04-15T05:38:39.051Z,7.30
2023-04-15T05:41:06.225Z,7.50
2023-04-15T05:43:33.030Z,7.60
2023-04-15T05:45:59.933Z,7.70
2023-04-15T05:48:26.789Z,7.80
2023-04-15T05:50:53.764Z,7.90
2023-04-15T05:53:20.973Z,8.00
2023-04-15T05:55:47.760Z,8.40
2023-04-15T05:58:14.570Z,8.80
2023-04-15T06:00:41.418Z,9.20
2023-04-15T06:03:08.418Z,9.40
2023-04-15T06:05:35.257Z,9.70
2023-04-15T06:08:02.159Z,9.90
2023-04-15T06:10:29.041Z,9.70
2023-04-15T06:12:55.959Z,9.40
2023-04-15T06:15:23.131Z,9.30
2023-04-15T06:17:49.957Z,9.30
2023-04-15T06:20:16.887Z,9.20
2023-04-15T06:22:43.761Z,9.20
2023-04-15T06:25:11.082Z,9.30
2023-04-15T06:27:37.935Z,9.50
2023-04-15T06:30:05.440Z,9.70
2023-04-15T06:32:33.319Z,9.80
2023-04-15T06:35:00.224Z,9.90
2023-04-15T06:37:27.155Z,9.80
2023-04-15T06:39:53.943Z,9.80
2023-04-15T06:42:21.158Z,9.80
2023-04-15T06:44:48.072Z,9.70
2023-04-15T06:47:15.472Z,9.60
2023-04-15T06:49:43.266Z,9.60
2023-04-15T06:52:11.407Z,9.80
2023-04-15T06:54:38.222Z,9.60
2023-04-15T06:57:05.102Z,9.70
2023-04-15T06:59:31.934Z,9.70
2023-04-15T07:01:58.790Z,9.60
2023-04-15T07:04:25.859Z,9.50
2023-04-15T07:06:52.846Z,9.50
2023-04-15T07:09:19.977Z,9.50
2023-04-15T07:11:46.842Z,9.60
2023-04-15T07:14:13.667Z,9.50
2023-04-15T07:16:40.501Z,9.70
2023-04-15T07:19:07.548Z,9.90
2023-04-15T07:21:34.335Z,10.00
2023-04-15T07:24:01.424Z,10.10
2023-04-15T07:26:28.299Z,10.00
2023-04-15T07:28:55.133Z,9.90
2023-04-15T07:31:22.223Z,10.20
2023-04-15T07:33:49.061Z,10.30
2023-04-15T07:36:15.926Z,10.40
2023-04-15T07:38:43.290Z,10.40
2023-04-15T07:41:10.754Z,10.50
2023-04-15T07:43:37.560Z,10.30
2023-04-15T07:46:04.677Z,10.30
2023-04-15T07:48:31.610Z,10.30
2023-04-15T07:50:58.991Z,10.40
2023-04-15T07:53:26.292Z,10.70
2023-04-15T07:55:53.053Z,11.00
2023-04-15T07:58:19.852Z,11.10
2023-04-15T08:00:46.878Z,11.00
2023-04-15T08:03:13.808Z,11.10
2023-04-15T08:05:41.179Z,11.20
2023-04-15T08:08:08.564Z,11.10
2023-04-15T08:10:35.416Z,11.00
2023-04-15T08:13:02.338Z,11.30
2023-04-15T08:15:29.163Z,11.40
2023-04-15T08:17:56.153Z,11.60
2023-04-15T08:20:23.073Z,11.70
2023-04-15T08:22:52.143Z,11.90
2023-04-15T08:25:20.055Z,12.00
2023-04-15T08:27:47.079Z,12.10
2023-04-15T08:30:14.314Z,12.20
2023-04-15T08:32:42.981Z,12.70
2023-04-15T08:35:10.580Z,12.70
2023-04-15T08:37:37.362Z,12.70
2023-04-15T08:40:04.897Z,12.80
2023-04-15T08:42:35.780Z,12.60
2023-04-15T08:45:05.076Z,12.10
2023-04-15T08:47:33.122Z,11.80
2023-04-15T08:50:01.284Z,11.80
2023-04-15T08:52:28.517Z,11.90
2023-04-15T08:54:58.993Z,12.00
2023-04-15T08:57:29.525Z,12.30
2023-04-15T08:59:57.573Z,12.50
2023-04-15T09:02:26.633Z,12.50
2023-04-15T09:04:53.909Z,12.40
2023-04-15T09:07:20.793Z,12.40
2023-04-15T09:09:48.751Z,12.60
2023-04-15T09:12:17.097Z,12.80
2023-04-15T09:14:46.385Z,12.90
2023-04-15T09:17:13.255Z,12.80
2023-04-15T09:19:40.025Z,12.90
2023-04-15T09:22:06.914Z,12.90
2023-04-15T09:24:39.338Z,12.90
2023-04-15T09:27:06.594Z,12.90
2023-04-15T09:29:33.626Z,12.90
2023-04-15T09:32:11.023Z,13.00
2023-04-15T09:34:38.615Z,13.20
2023-04-15T09:37:07.610Z,13.50
2023-04-15T09:39:52.105Z,13.50
2023-04-15T09:42:24.552Z,13.60
2023-04-15T09:44:53.215Z,13.40
2023-04-15T09:47:30.678Z,12.90
2023-04-15T09:49:58.952Z,12.70
2023-04-15T09:52:26.230Z,12.80
2023-04-15T09:54:58.779Z,12.90
2023-04-15T09:57:25.760Z,12.90
2023-04-15T09:59:52.840Z,12.90
2023-04-15T10:02:22.860Z,12.90
2023-04-15T10:04:50.332Z,12.70
2023-04-15T10:07:20.749Z,12.80
2023-04-15T10:09:49.300Z,13.00
2023-04-15T10:12:19.750Z,13.10
2023-04-15T10:14:53.015Z,13.10
2023-04-15T10:17:22.918Z,13.20
2023-04-15T10:19:53.085Z,13.30
2023-04-15T10:22:20.677Z,13.10
2023-04-15T10:24:48.942Z,13.10
2023-04-15T10:27:18.004Z,13.30
2023-04-15T10:29:45.810Z,13.30
2023-04-15T10:32:13.857Z,13.40
2023-04-15T10:34:41.116Z,13.40
2023-04-15T10:37:11.204Z,13.40
2023-04-15T10:39:38.253Z,13.30
2023-04-15T10:42:22.747Z,13.30
2023-04-15T10:44:53.717Z,13.10
2023-04-15T10:47:21.851Z,13.00
2023-04-15T10:49:51.585Z,13.10
2023-04-15T10:52:24.287Z,13.30
2023-04-15T10:55:01.966Z,13.30
2023-04-15T10:57:36.272Z,13.50
2023-04-15T11:00:11.368Z,13.40
2023-04-15T11:02:47.435Z,13.30
2023-04-15T11:05:16.359Z,13.20
2023-04-15T11:07:58.779Z,13.10
2023-04-15T11:10:26.143Z,13.20
2023-04-15T11:12:56.819Z,13.30
2023-04-15T11:15:32.648Z,13.30
2023-04-15T11:18:00.445Z,13.20
2023-04-15T11:20:27.749Z,13.20
2023-04-15T11:23:08.348Z,13.20
2023-04-15T11:25:41.144Z,13.10
2023-04-15T11:28:08.109Z,13.20
2023-04-15T11:30:37.116Z,13.20
2023-04-15T11:33:06.825Z,13.30
2023-04-15T11:35:34.665Z,13.40
2023-04-15T11:38:05.642Z,13.60
2023-04-15T11:40:35.917Z,13.80
2023-04-15T11:43:13.296Z,13.90
2023-04-15T11:45:57.322Z,13.80
2023-04-15T11:48:33.087Z,13.40
2023-04-15T11:51:01.968Z,13.20
2023-04-15T11:53:50.594Z,13.10
2023-04-15T11:56:22.594Z,13.10
2023-04-15T11:58:53.595Z,13.30
2023-04-15T12:01:20.461Z,13.40
2023-04-15T12:03:48.433Z,13.80
2023-04-15T12:06:23.655Z,13.80
2023-04-15T12:09:09.875Z,13.90
2023-04-15T12:11:51.167Z,13.90
2023-04-15T12:14:21.721Z,13.80
2023-04-15T12:16:51.841Z,13.60
2023-04-15T12:19:27.755Z,13.60
2023-04-15T12:22:00.900Z,13.60
2023-04-15T12:24:28.516Z,13.50
2023-04-15T12:26:57.818Z,13.80
2023-04-15T12:29:29.070Z,14.00
2023-04-15T12:31:57.943Z,13.90
2023-04-15T12:34:33.281Z,13.80
2023-04-15T12:37:02.511Z,13.90
2023-04-15T12:39:32.700Z,13.80
2023-04-15T12:42:00.630Z,13.70
2023-04-15T12:44:28.672Z,13.70
2023-04-15T12:46:56.327Z,13.70
2023-04-15T12:49:24.431Z,13.80
2023-04-15T12:51:53.306Z,13.60
2023-04-15T12:54:20.176Z,13.50
2023-04-15T12:56:47.949Z,13.40
2023-04-15T12:59:16.193Z,13.50
2023-04-15T13:01:43.163Z,13.80
2023-04-15T13:04:10.274Z,13.90
2023-04-15T13:06:38.543Z,14.20
2023-04-15T13:09:06.256Z,14.50
2023-04-15T13:11:36.894Z,14.50
2023-04-15T13:14:06.583Z,14.50
2023-04-15T13:16:34.655Z,14.30
2023-04-15T13:19:03.048Z,14.20
2023-04-15T13:21:31.434Z,14.30
2023-04-15T13:23:58.516Z,14.30
2023-04-15T13:26:25.393Z,14.40
2023-04-15T13:28:52.244Z,14.30
2023-04-15T13:31:19.136Z,14.50
2023-04-15T13:33:46.210Z,14.20
2023-04-15T13:36:13.058Z,13.90
2023-04-15T13:38:39.870Z,13.70
2023-04-15T13:41:06.744Z,13.70
2023-04-15T13:43:34.462Z,13.50
2023-04-15T13:46:01.602Z,13.70
2023-04-15T13:48:29.011Z,13.90
2023-04-15T13:50:55.938Z,13.80
2023-04-15T13:53:34.008Z,13.60
2023-04-15T13:56:07.509Z,13.70
2023-04-15T13:58:34.455Z,13.80
2023-04-15T14:01:03.176Z,13.80
2023-04-15T14:03:31.849Z,13.90
2023-04-15T14:05:59.538Z,13.80
2023-04-15T14:08:26.373Z,13.90
2023-04-15T14:10:53.163Z,13.80
2023-04-15T14:13:20.051Z,13.60
2023-04-15T14:18:23.404Z,13.60
2023-04-15T14:20:50.231Z,13.40
2023-04-15T14:23:17.250Z,13.40
2023-04-15T14:25:46.708Z,13.50
2023-04-15T14:28:15.146Z,13.40
2023-04-15T14:30:42.000Z,13.50
2023-04-15T14:33:08.833Z,13.40
2023-04-15T14:35:36.166Z,13.60
2023-04-15T14:38:02.986Z,13.40
2023-04-15T14:40:29.853Z,13.40
2023-04-15T14:42:56.623Z,13.40
2023-04-15T14:45:23.433Z,13.20
2023-04-15T14:47:50.641Z,13.30
2023-04-15T14:50:17.676Z,13.10
2023-04-15T14:52:44.551Z,13.10
2023-04-15T14:55:12.817Z,13.00
2023-04-15T14:57:41.127Z,13.10
2023-04-15T15:00:10.048Z,13.30
2023-04-15T15:02:40.533Z,13.30
2023-04-15T15:05:08.873Z,13.50
2023-04-15T15:07:37.403Z,13.50
2023-04-15T15:10:04.689Z,13.60
2023-04-15T15:12:32.338Z,13.50
2023-04-15T15:14:59.414Z,13.50
2023-04-15T15:17:26.437Z,13.40
2023-04-15T15:19:53.302Z,13.20
2023-04-15T15:22:21.438Z,13.30
2023-04-15T15:24:48.468Z,13.50
2023-04-15T15:27:15.277Z,13.40
2023-04-15T15:29:42.180Z,13.40
2023-04-15T15:32:09.045Z,13.40
2023-04-15T15:34:35.839Z,13.40
2023-04-15T15:37:02.655Z,13.30
2023-04-15T15:39:29.525Z,13.40
2023-04-15T15:41:56.402Z,13.40
2023-04-15T15:44:23.357Z,13.30
2023-04-15T15:46:51.251Z,13.40
2023-04-15T15:49:18.348Z,13.20
2023-04-15T15:51:46.001Z,13.10
2023-04-15T15:54:13.077Z,13.00
2023-04-15T15:56:39.978Z,13.00
2023-04-15T15:59:06.971Z,13.00
2023-04-15T16:01:34.011Z,12.90
2023-04-15T16:04:01.269Z,12.90
2023-04-15T16:06:28.873Z,12.80
2023-04-15T16:08:55.847Z,12.80
2023-04-15T16:11:23.604Z,12.60
2023-04-15T16:13:50.389Z,12.60
2023-04-15T16:16:17.326Z,12.60
2023-04-15T16:18:44.169Z,12.60
2023-04-15T16:21:11.161Z,12.60
2023-04-15T16:23:38.347Z,12.50
2023-04-15T16:26:05.429Z,12.20
2023-04-15T16:28:32.222Z,12.00
2023-04-15T16:30:59.519Z,11.80
2023-04-15T16:33:27.005Z,11.70
2023-04-15T16:35:53.960Z,11.60
2023-04-15T16:38:20.988Z,11.60
2023-04-15T16:40:47.810Z,11.60
2023-04-15T16:43:14.616Z,11.70
2023-04-15T16:45:41.479Z,11.80
2023-04-15T16:48:08.317Z,11.80
2023-04-15T16:50:37.396Z,11.70
2023-04-15T16:53:04.213Z,11.70
2023-04-15T16:55:31.134Z,11.50
2023-04-15T16:58:02.695Z,11.50
2023-04-15T17:00:33.010Z,11.50
2023-04-15T17:03:01.350Z,11.40
2023-04-15T17:05:29.312Z,11.40
2023-04-15T17:07:56.287Z,11.40
2023-04-15T17:10:23.779Z,11.30
2023-04-15T17:12:52.370Z,11.30
2023-04-15T17:15:20.232Z,11.20
2023-04-15T17:17:47.184Z,11.10
2023-04-15T17:20:14.310Z,11.00
2023-04-15T17:22:41.125Z,10.90
2023-04-15T17:25:08.540Z,10.90
2023-04-15T17:27:35.818Z,10.90
2023-04-15T17:30:04.146Z,10.90
2023-04-15T17:32:34.795Z,10.90
2023-04-15T17:35:03.722Z,10.70
2023-04-15T17:37:30.583Z,10.60
2023-04-15T17:39:57.397Z,10.60
2023-04-15T17:42:24.459Z,10.60
2023-04-15T17:44:51.473Z,10.60
2023-04-15T17:47:18.290Z,10.60
2023-04-15T17:49:45.124Z,10.60
2023-04-15T17:52:11.913Z,10.70
2023-04-15T17:54:38.737Z,10.70
2023-04-15T17:57:05.636Z,10.70
2023-04-15T17:59:33.931Z,10.60
2023-04-15T18:02:00.975Z,10.60
2023-04-15T18:04:28.123Z,10.60
2023-04-15T18:06:55.153Z,10.60
2023-04-15T18:09:22.274Z,10.60
2023-04-15T18:11:49.282Z,10.50
2023-04-15T18:14:27.001Z,10.40
2023-04-15T18:17:00.150Z,10.40
2023-04-15T18:19:26.989Z,10.30
2023-04-15T18:21:53.855Z,10.20
2023-04-15T18:24:21.109Z,10.20
2023-04-15T18:26:49.220Z,10.20
2023-04-15T18:29:16.541Z,10.10
2023-04-15T18:31:43.680Z,10.10
2023-04-15T18:34:10.759Z,10.10
2023-04-15T18:36:37.675Z,10.10
2023-04-15T18:39:05.167Z,10.20
2023-04-15T18:41:32.325Z,10.10
2023-04-15T18:43:59.378Z,10.00
2023-04-15T18:46:26.281Z,10.00
2023-04-15T18:48:53.092Z,9.90
2023-04-15T18:51:19.993Z,9.90
2023-04-15T18:53:46.766Z,9.90
2023-04-15T18:56:13.581Z,9.80
2023-04-15T18:59:25.735Z,9.80
2023-04-15T19:01:27.314Z,9.70
2023-04-15T19:03:54.150Z,9.60
2023-04-15T19:06:22.378Z,9.50
2023-04-15T19:08:49.354Z,9.40
2023-04-15T19:11:16.194Z,9.40
2023-04-15T19:13:43.001Z,9.30
2023-04-15T19:16:09.903Z,9.30
2023-04-15T19:18:36.841Z,9.20
2023-04-15T19:21:04.207Z,9.20
2023-04-15T19:23:31.597Z,9.10
2023-04-15T19:25:58.991Z,9.10
2023-04-15T19:28:28.317Z,9.00
2023-04-15T19:30:55.508Z,9.00
2023-04-15T19:33:22.417Z,9.00
2023-04-15T19:35:50.257Z,8.90
2023-04-15T19:38:17.212Z,8.90
2023-04-15T19:40:44.242Z,8.90
2023-04-15T19:43:11.068Z,8.90
2023-04-15T19:45:37.932Z,8.80
2023-04-15T19:48:06.270Z,8.80
2023-04-15T19:50:33.249Z,8.80
2023-04-15T19:53:00.117Z,8.80
2023-04-15T19:55:26.933Z,8.80
2023-04-15T19:57:53.824Z,8.70
2023-04-15T20:00:21.028Z,8.70
2023-04-15T20:02:47.929Z,8.70
2023-04-15T20:05:14.998Z,8.70
2023-04-15T20:07:47.788Z,8.70
2023-04-15T20:10:15.085Z,8.70
2023-04-15T20:12:49.439Z,8.70
2023-04-15T20:15:19.386Z,8.60
2023-04-15T20:17:46.250Z,8.60
2023-04-15T20:20:13.152Z,8.60
2023-04-15T20:22:40.046Z,8.50
2023-04-15T20:25:07.431Z,8.60
2023-04-15T20:27:34.242Z,8.60
2023-04-15T20:30:01.313Z,8.60
2023-04-15T20:32:28.627Z,8.50
2023-04-15T20:34:55.601Z,8.60
2023-04-15T20:37:22.506Z,8.60
2023-04-15T20:39:49.524Z,8.60
2023-04-15T20:42:16.458Z,8.60
2023-04-15T20:44:43.304Z,8.60
2023-04-15T20:47:10.626Z,8.50
2023-04-15T20:49:38.736Z,8.50
2023-04-15T20:52:07.472Z,8.40
2023-04-15T20:54:34.652Z,8.40
2023-04-15T20:57:01.874Z,8.40
2023-04-15T20:59:28.731Z,8.50
2023-04-15T21:01:57.157Z,8.50
2023-04-15T21:04:24.670Z,8.40
2023-04-15T21:06:52.425Z,8.50
2023-04-15T21:09:19.463Z,8.50
2023-04-15T21:12:00.309Z,8.50
2023-04-15T21:14:28.450Z,8.50
2023-04-15T21:16:56.426Z,8.60
2023-04-15T21:19:23.299Z,8.60
2023-04-15T21:21:50.140Z,8.60
2023-04-15T21:24:16.962Z,8.60
2023-04-15T21:26:43.749Z,8.60
2023-04-15T21:29:11.845Z,8.60
2023-04-15T21:31:39.135Z,8.60
2023-04-15T21:34:06.166Z,8.50
2023-04-15T21:36:34.039Z,8.50
2023-04-15T21:39:01.145Z,8.60
2023-04-15T21:41:28.335Z,8.60
2023-04-15T21:43:55.121Z,8.60
2023-04-15T21:46:25.352Z,8.60
2023-04-15T21:48:59.490Z,8.60
2023-04-15T21:51:26.811Z,8.70
2023-04-15T21:53:53.623Z,8.60
2023-04-15T21:56:22.753Z,8.60
2023-04-15T21:58:49.577Z,8.60
2023-04-15T22:01:17.022Z,8.70
2023-04-15T22:03:44.309Z,8.70
2023-04-15T22:06:11.348Z,8.70
2023-04-15T22:08:48.310Z,8.70
2023-04-15T22:11:26.615Z,8.70
2023-04-15T22:13:57.824Z,8.70
2023-04-15T22:16:27.878Z,8.70
2023-04-15T22:18:55.805Z,8.70
2023-04-15T22:21:23.076Z,8.80
2023-04-15T22:23:50.803Z,8.80
2023-04-15T22:26:17.586Z,8.70
2023-04-15T22:28:45.425Z,8.70
2023-04-15T22:31:12.256Z,8.60
2023-04-15T22:33:39.216Z,8.70
2023-04-15T22:36:06.433Z,8.70
2023-04-15T22:38:33.388Z,8.70
2023-04-15T22:41:00.369Z,8.70
2023-04-15T22:43:27.718Z,8.80
2023-04-15T22:45:55.192Z,8.70
2023-04-15T22:48:23.023Z,8.80
2023-04-15T22:50:50.181Z,8.70
2023-04-15T22:53:17.977Z,8.70
2023-04-15T22:55:46.905Z,8.70
2023-04-15T22:58:14.910Z,8.80
2023-04-15T23:00:41.799Z,8.70
2023-04-15T23:03:08.791Z,8.70
2023-04-15T23:05:36.168Z,8.70
2023-04-15T23:08:03.481Z,8.70
2023-04-15T23:10:30.457Z,8.80
2023-04-15T23:12:57.239Z,8.70
2023-04-15T23:15:24.423Z,8.70
2023-04-15T23:17:51.402Z,8.70
2023-04-15T23:20:18.410Z,8.80
2023-04-15T23:22:45.516Z,8.80
2023-04-15T23:25:12.391Z,8.70
2023-04-15T23:27:39.261Z,8.70
2023-04-15T23:30:07.132Z,8.70
2023-04-15T23:32:33.983Z,8.70
2023-04-15T23:35:00.894Z,8.70
2023-04-15T23:37:27.676Z,8.80
2023-04-15T23:39:55.850Z,8.70
2023-04-15T23:42:24.283Z,8.70
2023-04-15T23:44:51.241Z,8.70
2023-04-15T23:47:18.064Z,8.70
2023-04-15T23:49:44.908Z,8.70
2023-04-15T23:52:11.895Z,8.70
2023-04-15T23:54:38.893Z,8.70
2023-04-15T23:57:05.735Z,8.70
2023-04-15T23:59:32.493Z,8.70
